sensor_id;sensor_type;location;lat;lon;timestamp;pressure;altitude;pressure_sealevel;temperature;humidity
14120;BME280;7138;49.246;9.100;2024-02-21T00:01:48;99897.03;;;8.45;71.29
14120;BME280;7138;49.246;9.100;2024-02-21T00:04:14;99897.88;;;8.45;70.96
14120;BME280;7138;49.246;9.100;2024-02-21T00:06:41;99891.34;;;8.46;71.06
14120;BME280;7138;49.246;9.100;2024-02-21T00:09:07;99894.06;;;8.39;71.50
14120;BME280;7138;49.246;9.100;2024-02-21T00:11:35;99884.00;;;8.40;71.61
14120;BME280;7138;49.246;9.100;2024-02-21T00:14:01;99881.91;;;8.42;70.96
14120;BME280;7138;49.246;9.100;2024-02-21T00:16:26;99878.34;;;8.42;70.95
14120;BME280;7138;49.246;9.100;2024-02-21T00:18:52;99865.53;;;8.42;71.40
14120;BME280;7138;49.246;9.100;2024-02-21T00:21:18;99868.03;;;8.37;71.03
14120;BME280;7138;49.246;9.100;2024-02-21T00:23:45;99864.84;;;8.33;71.36
14120;BME280;7138;49.246;9.100;2024-02-21T00:26:16;99864.03;;;8.39;71.41
14120;BME280;7138;49.246;9.100;2024-02-21T00:28:42;99857.34;;;8.42;70.92
14120;BME280;7138;49.246;9.100;2024-02-21T00:31:08;99852.94;;;8.41;70.70
14120;BME280;7138;49.246;9.100;2024-02-21T00:33:34;99856.94;;;8.45;70.80
14120;BME280;7138;49.246;9.100;2024-02-21T00:35:59;99856.31;;;8.43;70.69
14120;BME280;7138;49.246;9.100;2024-02-21T00:38:25;99854.00;;;8.40;71.30
14120;BME280;7138;49.246;9.100;2024-02-21T00:40:52;99846.84;;;8.39;70.63
14120;BME280;7138;49.246;9.100;2024-02-21T00:43:18;99848.13;;;8.43;70.94
14120;BME280;7138;49.246;9.100;2024-02-21T00:45:44;99851.06;;;8.42;70.89
14120;BME280;7138;49.246;9.100;2024-02-21T00:48:10;99843.47;;;8.37;70.60
14120;BME280;7138;49.246;9.100;2024-02-21T00:50:36;99842.84;;;8.35;70.87
14120;BME280;7138;49.246;9.100;2024-02-21T00:53:04;99855.59;;;8.28;71.26
14120;BME280;7138;49.246;9.100;2024-02-21T00:55:30;99843.63;;;8.22;71.14
14120;BME280;7138;49.246;9.100;2024-02-21T00:57:57;99838.78;;;8.18;71.46
14120;BME280;7138;49.246;9.100;2024-02-21T01:00:23;99840.28;;;8.20;71.77
14120;BME280;7138;49.246;9.100;2024-02-21T01:02:48;99837.13;;;8.23;71.13
14120;BME280;7138;49.246;9.100;2024-02-21T01:05:14;99829.38;;;8.27;70.89
14120;BME280;7138;49.246;9.100;2024-02-21T01:07:40;99823.09;;;8.33;71.21
14120;BME280;7138;49.246;9.100;2024-02-21T01:10:08;99815.75;;;8.33;71.34
14120;BME280;7138;49.246;9.100;2024-02-21T01:12:34;99815.13;;;8.38;70.94
14120;BME280;7138;49.246;9.100;2024-02-21T01:15:02;99809.91;;;8.43;71.00
14120;BME280;7138;49.246;9.100;2024-02-21T01:17:27;99813.88;;;8.47;70.65
14120;BME280;7138;49.246;9.100;2024-02-21T01:19:53;99809.50;;;8.53;70.57
14120;BME280;7138;49.246;9.100;2024-02-21T01:22:19;99801.94;;;8.55;70.67
14120;BME280;7138;49.246;9.100;2024-02-21T01:24:45;99796.03;;;8.58;70.22
14120;BME280;7138;49.246;9.100;2024-02-21T01:27:11;99793.75;;;8.61;70.37
14120;BME280;7138;49.246;9.100;2024-02-21T01:29:37;99792.28;;;8.65;70.16
14120;BME280;7138;49.246;9.100;2024-02-21T01:32:05;99792.88;;;8.61;70.23
14120;BME280;7138;49.246;9.100;2024-02-21T01:34:31;99787.41;;;8.61;70.39
14120;BME280;7138;49.246;9.100;2024-02-21T01:36:57;99780.09;;;8.55;70.62
14120;BME280;7138;49.246;9.100;2024-02-21T01:39:23;99784.72;;;8.54;70.93
14120;BME280;7138;49.246;9.100;2024-02-21T01:41:49;99782.00;;;8.54;70.73
14120;BME280;7138;49.246;9.100;2024-02-21T01:44:14;99782.00;;;8.54;70.95
14120;BME280;7138;49.246;9.100;2024-02-21T01:46:41;99771.69;;;8.56;71.11
14120;BME280;7138;49.246;9.100;2024-02-21T01:49:08;99769.59;;;8.58;71.04
14120;BME280;7138;49.246;9.100;2024-02-21T01:51:35;99779.66;;;8.58;71.51
14120;BME280;7138;49.246;9.100;2024-02-21T01:54:02;99781.16;;;8.54;71.93
14120;BME280;7138;49.246;9.100;2024-02-21T01:56:28;99784.91;;;8.46;72.32
14120;BME280;7138;49.246;9.100;2024-02-21T01:58:55;99779.25;;;8.34;72.90
14120;BME280;7138;49.246;9.100;2024-02-21T02:01:21;99772.53;;;8.37;72.32
14120;BME280;7138;49.246;9.100;2024-02-21T02:03:47;99771.06;;;8.34;73.18
14120;BME280;7138;49.246;9.100;2024-02-21T02:06:15;99764.13;;;8.32;72.82
14120;BME280;7138;49.246;9.100;2024-02-21T02:08:42;99768.34;;;8.34;72.37
14120;BME280;7138;49.246;9.100;2024-02-21T02:11:08;99770.00;;;8.35;72.48
14120;BME280;7138;49.246;9.100;2024-02-21T02:13:34;99768.53;;;8.39;72.83
14120;BME280;7138;49.246;9.100;2024-02-21T02:16:00;99769.81;;;8.44;72.99
14120;BME280;7138;49.246;9.100;2024-02-21T02:18:25;99767.50;;;8.47;72.21
14120;BME280;7138;49.246;9.100;2024-02-21T02:20:51;99777.78;;;8.52;72.37
14120;BME280;7138;49.246;9.100;2024-02-21T02:23:24;99769.19;;;8.55;72.48
14120;BME280;7138;49.246;9.100;2024-02-21T02:25:50;99751.13;;;8.54;72.12
14120;BME280;7138;49.246;9.100;2024-02-21T02:28:20;99754.47;;;8.62;72.04
14120;BME280;7138;49.246;9.100;2024-02-21T02:30:47;99745.03;;;8.65;72.04
14120;BME280;7138;49.246;9.100;2024-02-21T02:33:13;99752.38;;;8.64;72.19
14120;BME280;7138;49.246;9.100;2024-02-21T02:35:39;99738.28;;;8.61;72.14
14120;BME280;7138;49.246;9.100;2024-02-21T02:38:05;99734.13;;;8.52;72.52
14120;BME280;7138;49.246;9.100;2024-02-21T02:40:34;99738.53;;;8.53;72.32
14120;BME280;7138;49.246;9.100;2024-02-21T02:43:00;99739.38;;;8.40;73.37
14120;BME280;7138;49.246;9.100;2024-02-21T02:45:26;99726.75;;;8.39;72.80
14120;BME280;7138;49.246;9.100;2024-02-21T02:47:53;99722.78;;;8.42;72.46
14120;BME280;7138;49.246;9.100;2024-02-21T02:50:22;99719.84;;;8.43;72.51
14120;BME280;7138;49.246;9.100;2024-02-21T02:52:48;99721.97;;;8.41;72.82
14120;BME280;7138;49.246;9.100;2024-02-21T02:55:14;99706.22;;;8.43;72.73
14120;BME280;7138;49.246;9.100;2024-02-21T02:57:42;99695.06;;;8.38;72.46
14120;BME280;7138;49.246;9.100;2024-02-21T03:00:10;99710.19;;;8.40;72.83
14120;BME280;7138;49.246;9.100;2024-02-21T03:02:38;99707.03;;;8.37;72.78
14120;BME280;7138;49.246;9.100;2024-02-21T03:05:13;99694.22;;;8.31;73.42
14120;BME280;7138;49.246;9.100;2024-02-21T03:07:40;99683.72;;;8.28;73.18
14120;BME280;7138;49.246;9.100;2024-02-21T03:10:06;99683.31;;;8.31;73.53
14120;BME280;7138;49.246;9.100;2024-02-21T03:12:32;99678.69;;;8.31;73.14
14120;BME280;7138;49.246;9.100;2024-02-21T03:15:00;99677.25;;;8.35;72.58
14120;BME280;7138;49.246;9.100;2024-02-21T03:17:25;99674.28;;;8.37;73.05
14120;BME280;7138;49.246;9.100;2024-02-21T03:19:54;99682.47;;;8.37;72.69
14120;BME280;7138;49.246;9.100;2024-02-21T03:22:25;99685.59;;;8.34;72.85
14120;BME280;7138;49.246;9.100;2024-02-21T03:24:51;99684.78;;;8.33;72.57
14120;BME280;7138;49.246;9.100;2024-02-21T03:27:17;99682.25;;;8.32;72.94
14120;BME280;7138;49.246;9.100;2024-02-21T03:29:43;99680.38;;;8.32;72.76
14120;BME280;7138;49.246;9.100;2024-02-21T03:32:10;99669.25;;;8.34;72.57
14120;BME280;7138;49.246;9.100;2024-02-21T03:34:36;99655.59;;;8.34;72.66
14120;BME280;7138;49.246;9.100;2024-02-21T03:37:02;99648.06;;;8.36;72.67
14120;BME280;7138;49.246;9.100;2024-02-21T03:39:31;99643.22;;;8.38;72.43
14120;BME280;7138;49.246;9.100;2024-02-21T03:41:57;99643.00;;;8.39;72.36
14120;BME280;7138;49.246;9.100;2024-02-21T03:44:23;99641.34;;;8.38;72.47
14120;BME280;7138;49.246;9.100;2024-02-21T03:46:49;99652.47;;;8.37;72.06
14120;BME280;7138;49.246;9.100;2024-02-21T03:49:17;99652.03;;;8.33;72.63
14120;BME280;7138;49.246;9.100;2024-02-21T03:51:46;99640.50;;;8.31;72.42
14120;BME280;7138;49.246;9.100;2024-02-21T03:54:12;99628.31;;;8.27;72.27
14120;BME280;7138;49.246;9.100;2024-02-21T03:56:38;99624.97;;;8.32;71.84
14120;BME280;7138;49.246;9.100;2024-02-21T03:59:05;99623.91;;;8.33;71.81
14120;BME280;7138;49.246;9.100;2024-02-21T04:01:31;99623.06;;;8.32;72.45
14120;BME280;7138;49.246;9.100;2024-02-21T04:03:57;99627.91;;;8.30;71.76
14120;BME280;7138;49.246;9.100;2024-02-21T04:06:24;99633.97;;;8.26;72.42
14120;BME280;7138;49.246;9.100;2024-02-21T04:08:50;99627.47;;;8.27;71.96
14120;BME280;7138;49.246;9.100;2024-02-21T04:11:16;99626.22;;;8.23;71.87
14120;BME280;7138;49.246;9.100;2024-02-21T04:13:44;99610.28;;;8.13;71.73
14120;BME280;7138;49.246;9.100;2024-02-21T04:16:10;99623.09;;;8.12;72.65
14120;BME280;7138;49.246;9.100;2024-02-21T04:18:36;99619.34;;;8.00;72.79
14120;BME280;7138;49.246;9.100;2024-02-21T04:21:02;99629.19;;;8.01;72.79
14120;BME280;7138;49.246;9.100;2024-02-21T04:23:29;99636.31;;;8.02;72.13
14120;BME280;7138;49.246;9.100;2024-02-21T04:25:55;99640.09;;;8.01;72.53
14120;BME280;7138;49.246;9.100;2024-02-21T04:28:20;99644.28;;;8.04;72.17
14120;BME280;7138;49.246;9.100;2024-02-21T04:30:46;99646.78;;;8.05;72.54
14120;BME280;7138;49.246;9.100;2024-02-21T04:33:12;99651.63;;;8.10;72.45
14120;BME280;7138;49.246;9.100;2024-02-21T04:35:38;99653.94;;;8.13;72.56
14120;BME280;7138;49.246;9.100;2024-02-21T04:38:05;99661.69;;;8.16;72.34
14120;BME280;7138;49.246;9.100;2024-02-21T04:40:32;99659.78;;;8.17;72.33
14120;BME280;7138;49.246;9.100;2024-02-21T04:42:58;99648.66;;;8.18;72.62
14120;BME280;7138;49.246;9.100;2024-02-21T04:45:23;99630.84;;;8.22;72.18
14120;BME280;7138;49.246;9.100;2024-02-21T04:47:49;99623.91;;;8.26;72.34
14120;BME280;7138;49.246;9.100;2024-02-21T04:50:15;99621.81;;;8.28;72.03
14120;BME280;7138;49.246;9.100;2024-02-21T04:52:41;99622.44;;;8.30;72.07
14120;BME280;7138;49.246;9.100;2024-02-21T04:55:07;99621.63;;;8.30;71.64
14120;BME280;7138;49.246;9.100;2024-02-21T04:57:35;99621.63;;;8.30;71.93
14120;BME280;7138;49.246;9.100;2024-02-21T05:00:00;99617.41;;;8.27;71.61
14120;BME280;7138;49.246;9.100;2024-02-21T05:02:26;99610.91;;;8.22;71.40
14120;BME280;7138;49.246;9.100;2024-02-21T05:04:52;99604.00;;;8.19;71.42
14120;BME280;7138;49.246;9.100;2024-02-21T05:07:18;99590.78;;;8.16;71.88
14120;BME280;7138;49.246;9.100;2024-02-21T05:09:45;99593.94;;;8.13;71.57
14120;BME280;7138;49.246;9.100;2024-02-21T05:12:11;99590.78;;;8.09;71.76
14120;BME280;7138;49.246;9.100;2024-02-21T05:14:38;99584.50;;;8.02;71.67
14120;BME280;7138;49.246;9.100;2024-02-21T05:17:04;99587.88;;;7.98;71.90
14120;BME280;7138;49.246;9.100;2024-02-21T05:19:30;99582.19;;;7.93;71.52
14120;BME280;7138;49.246;9.100;2024-02-21T05:21:56;99584.75;;;7.88;72.07
14120;BME280;7138;49.246;9.100;2024-02-21T05:24:22;99577.19;;;7.83;71.66
14120;BME280;7138;49.246;9.100;2024-02-21T05:26:48;99578.66;;;7.79;71.76
14120;BME280;7138;49.246;9.100;2024-02-21T05:29:14;99572.78;;;7.75;72.20
14120;BME280;7138;49.246;9.100;2024-02-21T05:31:56;99571.53;;;7.71;72.21
14120;BME280;7138;49.246;9.100;2024-02-21T05:34:23;99565.88;;;7.66;72.01
14120;BME280;7138;49.246;9.100;2024-02-21T05:36:49;99570.06;;;7.62;71.82
14120;BME280;7138;49.246;9.100;2024-02-21T05:39:18;99567.13;;;7.57;72.17
14120;BME280;7138;49.246;9.100;2024-02-21T05:41:44;99570.47;;;7.52;72.33
14120;BME280;7138;49.246;9.100;2024-02-21T05:44:10;99571.31;;;7.46;72.17
14120;BME280;7138;49.246;9.100;2024-02-21T05:46:37;99569.00;;;7.43;72.41
14120;BME280;7138;49.246;9.100;2024-02-21T05:49:04;99564.19;;;7.39;72.91
14120;BME280;7138;49.246;9.100;2024-02-21T05:51:32;99559.75;;;7.31;72.83
14120;BME280;7138;49.246;9.100;2024-02-21T05:53:59;99554.50;;;7.23;72.29
14120;BME280;7138;49.246;9.100;2024-02-21T05:56:25;99567.09;;;7.17;73.05
14120;BME280;7138;49.246;9.100;2024-02-21T05:58:51;99566.00;;;7.12;72.84
14120;BME280;7138;49.246;9.100;2024-02-21T06:01:17;99573.75;;;7.08;72.55
14120;BME280;7138;49.246;9.100;2024-02-21T06:03:43;99557.00;;;7.05;72.56
14120;BME280;7138;49.246;9.100;2024-02-21T06:06:10;99557.22;;;7.03;72.89
14120;BME280;7138;49.246;9.100;2024-02-21T06:08:36;99555.31;;;6.97;72.90
14120;BME280;7138;49.246;9.100;2024-02-21T06:11:02;99551.34;;;6.93;73.17
14120;BME280;7138;49.246;9.100;2024-02-21T06:13:28;99551.94;;;6.88;72.83
14120;BME280;7138;49.246;9.100;2024-02-21T06:15:53;99552.56;;;6.84;73.10
14120;BME280;7138;49.246;9.100;2024-02-21T06:18:20;99558.44;;;6.81;73.22
14120;BME280;7138;49.246;9.100;2024-02-21T06:20:47;99562.16;;;6.80;72.56
14120;BME280;7138;49.246;9.100;2024-02-21T06:23:16;99564.03;;;6.79;72.41
14120;BME280;7138;49.246;9.100;2024-02-21T06:25:42;99554.41;;;6.77;72.80
14120;BME280;7138;49.246;9.100;2024-02-21T06:28:08;99548.97;;;6.77;72.52
14120;BME280;7138;49.246;9.100;2024-02-21T06:30:35;99552.94;;;6.74;73.23
14120;BME280;7138;49.246;9.100;2024-02-21T06:33:01;99547.72;;;6.73;72.58
14120;BME280;7138;49.246;9.100;2024-02-21T06:35:28;99537.22;;;6.70;73.25
14120;BME280;7138;49.246;9.100;2024-02-21T06:37:54;99535.38;;;6.70;72.82
14120;BME280;7138;49.246;9.100;2024-02-21T06:40:23;99529.91;;;6.70;73.21
14120;BME280;7138;49.246;9.100;2024-02-21T06:42:49;99529.28;;;6.75;73.22
14120;BME280;7138;49.246;9.100;2024-02-21T06:45:15;99532.66;;;6.77;73.36
14120;BME280;7138;49.246;9.100;2024-02-21T06:47:41;99533.06;;;6.80;72.96
14120;BME280;7138;49.246;9.100;2024-02-21T06:50:08;99538.13;;;6.83;73.87
14120;BME280;7138;49.246;9.100;2024-02-21T06:52:34;99544.41;;;6.84;73.14
14120;BME280;7138;49.246;9.100;2024-02-21T06:55:00;99550.47;;;6.86;73.64
14120;BME280;7138;49.246;9.100;2024-02-21T06:57:29;99542.94;;;6.88;73.57
14120;BME280;7138;49.246;9.100;2024-02-21T06:59:55;99535.63;;;6.95;73.49
14120;BME280;7138;49.246;9.100;2024-02-21T07:02:21;99526.44;;;7.03;73.19
14120;BME280;7138;49.246;9.100;2024-02-21T07:04:47;99530.00;;;7.10;73.80
14120;BME280;7138;49.246;9.100;2024-02-21T07:07:13;99528.13;;;7.17;73.09
14120;BME280;7138;49.246;9.100;2024-02-21T07:09:38;99531.88;;;7.22;73.56
14120;BME280;7138;49.246;9.100;2024-02-21T07:12:05;99515.38;;;7.24;72.99
14120;BME280;7138;49.246;9.100;2024-02-21T07:14:33;99516.59;;;7.28;73.04
14120;BME280;7138;49.246;9.100;2024-02-21T07:16:59;99531.09;;;7.35;72.86
14120;BME280;7138;49.246;9.100;2024-02-21T07:19:25;99525.22;;;7.38;73.23
14120;BME280;7138;49.246;9.100;2024-02-21T07:21:51;99530.00;;;7.43;73.00
14120;BME280;7138;49.246;9.100;2024-02-21T07:24:17;99515.78;;;7.47;73.23
14120;BME280;7138;49.246;9.100;2024-02-21T07:26:43;99519.31;;;7.54;73.13
14120;BME280;7138;49.246;9.100;2024-02-21T07:29:09;99512.00;;;7.62;73.37
14120;BME280;7138;49.246;9.100;2024-02-21T07:31:41;99498.16;;;7.63;73.51
14120;BME280;7138;49.246;9.100;2024-02-21T07:34:07;99510.06;;;7.82;73.40
14120;BME280;7138;49.246;9.100;2024-02-21T07:36:32;99499.78;;;7.91;73.35
14120;BME280;7138;49.246;9.100;2024-02-21T07:38:58;99499.97;;;8.02;73.09
14120;BME280;7138;49.246;9.100;2024-02-21T07:41:25;99499.91;;;8.16;72.59
14120;BME280;7138;49.246;9.100;2024-02-21T07:43:51;99490.00;;;8.28;72.40
14120;BME280;7138;49.246;9.100;2024-02-21T07:46:17;99494.81;;;8.39;72.21
14120;BME280;7138;49.246;9.100;2024-02-21T07:48:45;99493.97;;;8.45;71.83
14120;BME280;7138;49.246;9.100;2024-02-21T07:51:11;99491.38;;;8.57;72.04
14120;BME280;7138;49.246;9.100;2024-02-21T07:53:38;99502.06;;;8.65;71.59
14120;BME280;7138;49.246;9.100;2024-02-21T07:56:04;99501.16;;;8.71;71.45
14120;BME280;7138;49.246;9.100;2024-02-21T07:58:30;99493.78;;;8.78;71.50
14120;BME280;7138;49.246;9.100;2024-02-21T08:00:56;99500.44;;;8.89;71.44
14120;BME280;7138;49.246;9.100;2024-02-21T08:03:22;99499.09;;;9.05;71.22
14120;BME280;7138;49.246;9.100;2024-02-21T08:05:50;99498.59;;;9.14;70.33
14120;BME280;7138;49.246;9.100;2024-02-21T08:08:15;99502.31;;;9.26;70.58
14120;BME280;7138;49.246;9.100;2024-02-21T08:10:45;99494.63;;;9.35;68.78
14120;BME280;7138;49.246;9.100;2024-02-21T08:13:11;99487.00;;;9.44;69.40
14120;BME280;7138;49.246;9.100;2024-02-21T08:15:37;99482.09;;;9.52;69.42
14120;BME280;7138;49.246;9.100;2024-02-21T08:18:05;99481.53;;;9.69;69.40
14120;BME280;7138;49.246;9.100;2024-02-21T08:20:31;99485.56;;;9.84;68.92
14120;BME280;7138;49.246;9.100;2024-02-21T08:22:58;99478.88;;;9.99;69.16
14120;BME280;7138;49.246;9.100;2024-02-21T08:25:24;99476.88;;;10.12;67.81
14120;BME280;7138;49.246;9.100;2024-02-21T08:27:49;99479.84;;;10.11;67.00
14120;BME280;7138;49.246;9.100;2024-02-21T08:30:17;99473.19;;;10.19;67.63
14120;BME280;7138;49.246;9.100;2024-02-21T08:32:43;99468.56;;;10.19;67.41
14120;BME280;7138;49.246;9.100;2024-02-21T08:35:09;99467.44;;;10.27;67.04
14120;BME280;7138;49.246;9.100;2024-02-21T08:37:35;99469.13;;;10.28;66.90
14120;BME280;7138;49.246;9.100;2024-02-21T08:40:03;99459.00;;;10.28;65.15
14120;BME280;7138;49.246;9.100;2024-02-21T08:42:34;99460.53;;;10.24;65.55
14120;BME280;7138;49.246;9.100;2024-02-21T08:44:59;99456.97;;;10.24;65.51
14120;BME280;7138;49.246;9.100;2024-02-21T08:47:25;99462.44;;;10.24;65.83
14120;BME280;7138;49.246;9.100;2024-02-21T08:49:51;99458.53;;;10.31;66.37
14120;BME280;7138;49.246;9.100;2024-02-21T08:52:17;99455.06;;;10.42;66.06
14120;BME280;7138;49.246;9.100;2024-02-21T08:54:42;99448.59;;;10.37;64.23
14120;BME280;7138;49.246;9.100;2024-02-21T08:57:09;99449.66;;;10.36;64.93
14120;BME280;7138;49.246;9.100;2024-02-21T08:59:35;99441.81;;;10.39;64.94
14120;BME280;7138;49.246;9.100;2024-02-21T09:02:01;99436.66;;;10.31;64.02
14120;BME280;7138;49.246;9.100;2024-02-21T09:04:29;99434.78;;;10.32;64.13
14120;BME280;7138;49.246;9.100;2024-02-21T09:06:55;99434.53;;;10.33;64.65
14120;BME280;7138;49.246;9.100;2024-02-21T09:09:20;99433.84;;;10.38;64.22
14120;BME280;7138;49.246;9.100;2024-02-21T09:11:46;99434.66;;;10.38;64.14
14120;BME280;7138;49.246;9.100;2024-02-21T09:14:13;99435.72;;;10.37;63.77
14120;BME280;7138;49.246;9.100;2024-02-21T09:16:39;99438.41;;;10.44;64.29
14120;BME280;7138;49.246;9.100;2024-02-21T09:19:05;99440.78;;;10.52;64.71
14120;BME280;7138;49.246;9.100;2024-02-21T09:21:31;99433.66;;;10.51;63.32
14120;BME280;7138;49.246;9.100;2024-02-21T09:23:57;99425.34;;;10.58;64.00
14120;BME280;7138;49.246;9.100;2024-02-21T09:26:22;99426.69;;;10.67;64.90
14120;BME280;7138;49.246;9.100;2024-02-21T09:28:48;99426.81;;;10.72;63.89
14120;BME280;7138;49.246;9.100;2024-02-21T09:31:15;99434.44;;;10.70;63.12
14120;BME280;7138;49.246;9.100;2024-02-21T09:33:41;99431.94;;;10.68;63.09
14120;BME280;7138;49.246;9.100;2024-02-21T09:36:07;99425.88;;;10.66;62.94
14120;BME280;7138;49.246;9.100;2024-02-21T09:38:33;99427.06;;;10.70;63.49
14120;BME280;7138;49.246;9.100;2024-02-21T09:41:04;99418.03;;;10.82;63.35
14120;BME280;7138;49.246;9.100;2024-02-21T09:43:34;99404.34;;;10.82;62.00
14120;BME280;7138;49.246;9.100;2024-02-21T09:46:01;99409.59;;;10.95;63.17
14120;BME280;7138;49.246;9.100;2024-02-21T09:48:50;99399.88;;;11.11;62.77
14120;BME280;7138;49.246;9.100;2024-02-21T09:51:21;99397.88;;;11.18;61.03
14120;BME280;7138;49.246;9.100;2024-02-21T09:53:48;99393.81;;;11.09;59.52
14120;BME280;7138;49.246;9.100;2024-02-21T09:56:15;99390.81;;;10.98;60.37
14120;BME280;7138;49.246;9.100;2024-02-21T09:58:41;99389.97;;;10.98;60.62
14120;BME280;7138;49.246;9.100;2024-02-21T10:01:07;99387.59;;;11.01;60.65
14120;BME280;7138;49.246;9.100;2024-02-21T10:03:35;99387.00;;;10.99;59.22
14120;BME280;7138;49.246;9.100;2024-02-21T10:06:01;99366.50;;;11.02;61.25
14120;BME280;7138;49.246;9.100;2024-02-21T10:08:28;99382.97;;;11.25;61.01
14120;BME280;7138;49.246;9.100;2024-02-21T10:10:54;99386.31;;;11.39;61.39
14120;BME280;7138;49.246;9.100;2024-02-21T10:13:26;99377.94;;;11.46;61.06
14120;BME280;7138;49.246;9.100;2024-02-21T10:16:04;99365.44;;;11.50;60.09
14120;BME280;7138;49.246;9.100;2024-02-21T10:18:31;99369.13;;;11.55;60.47
14120;BME280;7138;49.246;9.100;2024-02-21T10:21:03;99361.63;;;11.51;58.48
14120;BME280;7138;49.246;9.100;2024-02-21T10:23:29;99361.38;;;11.52;58.88
14120;BME280;7138;49.246;9.100;2024-02-21T10:26:07;99360.41;;;11.47;59.78
14120;BME280;7138;49.246;9.100;2024-02-21T10:28:32;99359.97;;;11.50;59.44
14120;BME280;7138;49.246;9.100;2024-02-21T10:30:58;99354.72;;;11.60;59.62
14120;BME280;7138;49.246;9.100;2024-02-21T10:33:24;99351.59;;;11.56;59.79
14120;BME280;7138;49.246;9.100;2024-02-21T10:35:53;99350.66;;;11.63;58.99
14120;BME280;7138;49.246;9.100;2024-02-21T10:38:20;99347.91;;;11.63;57.93
14120;BME280;7138;49.246;9.100;2024-02-21T10:40:47;99345.03;;;11.81;59.90
14120;BME280;7138;49.246;9.100;2024-02-21T10:43:16;99338.91;;;11.91;59.97
14120;BME280;7138;49.246;9.100;2024-02-21T10:45:45;99329.63;;;11.92;58.40
14120;BME280;7138;49.246;9.100;2024-02-21T10:48:15;99328.78;;;11.79;58.62
14120;BME280;7138;49.246;9.100;2024-02-21T10:50:56;99316.28;;;11.83;59.17
14120;BME280;7138;49.246;9.100;2024-02-21T10:53:39;99316.66;;;11.64;57.21
14120;BME280;7138;49.246;9.100;2024-02-21T10:56:19;99310.66;;;11.67;58.73
14120;BME280;7138;49.246;9.100;2024-02-21T10:58:48;99306.84;;;11.79;58.53
14120;BME280;7138;49.246;9.100;2024-02-21T11:01:15;99301.19;;;11.98;58.61
14120;BME280;7138;49.246;9.100;2024-02-21T11:03:46;99298.34;;;11.93;56.88
14120;BME280;7138;49.246;9.100;2024-02-21T11:06:13;99295.75;;;11.86;57.53
14120;BME280;7138;49.246;9.100;2024-02-21T11:08:42;99288.09;;;11.76;56.65
14120;BME280;7138;49.246;9.100;2024-02-21T11:11:08;99284.03;;;11.79;58.47
14120;BME280;7138;49.246;9.100;2024-02-21T11:13:36;99282.03;;;11.86;57.49
14120;BME280;7138;49.246;9.100;2024-02-21T11:16:10;99268.50;;;11.96;57.17
14120;BME280;7138;49.246;9.100;2024-02-21T11:18:36;99264.44;;;11.99;57.32
14120;BME280;7138;49.246;9.100;2024-02-21T11:21:03;99263.78;;;11.80;57.50
14120;BME280;7138;49.246;9.100;2024-02-21T11:23:30;99259.34;;;11.79;56.81
14120;BME280;7138;49.246;9.100;2024-02-21T11:26:06;99245.47;;;11.97;58.05
14120;BME280;7138;49.246;9.100;2024-02-21T11:28:32;99246.28;;;11.98;56.37
14120;BME280;7138;49.246;9.100;2024-02-21T11:31:07;99246.22;;;11.93;56.79
14120;BME280;7138;49.246;9.100;2024-02-21T11:33:34;99238.56;;;11.95;58.02
14120;BME280;7138;49.246;9.100;2024-02-21T11:36:00;99239.47;;;12.00;57.74
14120;BME280;7138;49.246;9.100;2024-02-21T11:38:26;99231.16;;;11.95;57.16
14120;BME280;7138;49.246;9.100;2024-02-21T11:40:52;99221.84;;;11.96;58.45
14120;BME280;7138;49.246;9.100;2024-02-21T11:43:20;99217.97;;;12.09;59.11
14120;BME280;7138;49.246;9.100;2024-02-21T11:45:46;99210.47;;;12.21;57.96
14120;BME280;7138;49.246;9.100;2024-02-21T11:48:11;99207.47;;;12.23;56.86
14120;BME280;7138;49.246;9.100;2024-02-21T11:50:37;99199.09;;;12.29;56.94
14120;BME280;7138;49.246;9.100;2024-02-21T11:53:05;99194.50;;;12.18;57.29
14120;BME280;7138;49.246;9.100;2024-02-21T11:55:31;99200.50;;;12.32;57.71
14120;BME280;7138;49.246;9.100;2024-02-21T11:57:57;99184.44;;;12.40;57.65
14120;BME280;7138;49.246;9.100;2024-02-21T12:00:26;99189.69;;;12.42;56.46
14120;BME280;7138;49.246;9.100;2024-02-21T12:02:52;99168.63;;;12.48;56.13
14120;BME280;7138;49.246;9.100;2024-02-21T12:05:19;99170.78;;;12.62;57.34
14120;BME280;7138;49.246;9.100;2024-02-21T12:07:46;99166.31;;;12.56;56.82
14120;BME280;7138;49.246;9.100;2024-02-21T12:10:13;99161.97;;;12.60;57.58
14120;BME280;7138;49.246;9.100;2024-02-21T12:12:39;99154.88;;;12.64;56.30
14120;BME280;7138;49.246;9.100;2024-02-21T12:15:07;99154.19;;;12.74;56.76
14120;BME280;7138;49.246;9.100;2024-02-21T12:17:35;99146.72;;;12.69;56.06
14120;BME280;7138;49.246;9.100;2024-02-21T12:20:01;99148.25;;;12.82;57.33
14120;BME280;7138;49.246;9.100;2024-02-21T12:22:30;99139.75;;;12.84;53.79
14120;BME280;7138;49.246;9.100;2024-02-21T12:24:58;99130.06;;;12.98;56.32
14120;BME280;7138;49.246;9.100;2024-02-21T12:27:23;99126.59;;;13.08;56.47
14120;BME280;7138;49.246;9.100;2024-02-21T12:29:50;99129.47;;;13.18;55.62
14120;BME280;7138;49.246;9.100;2024-02-21T12:32:16;99126.53;;;13.19;54.70
14120;BME280;7138;49.246;9.100;2024-02-21T12:34:43;99123.03;;;13.29;55.03
14120;BME280;7138;49.246;9.100;2024-02-21T12:37:10;99105.00;;;13.38;55.75
14120;BME280;7138;49.246;9.100;2024-02-21T12:39:38;99090.53;;;13.48;55.10
14120;BME280;7138;49.246;9.100;2024-02-21T12:42:04;99098.00;;;13.52;54.89
14120;BME280;7138;49.246;9.100;2024-02-21T12:44:30;99094.25;;;13.37;52.96
14120;BME280;7138;49.246;9.100;2024-02-21T12:46:56;99090.28;;;13.27;53.51
14120;BME280;7138;49.246;9.100;2024-02-21T12:49:22;99083.56;;;13.18;53.75
14120;BME280;7138;49.246;9.100;2024-02-21T12:51:49;99076.25;;;13.24;54.49
14120;BME280;7138;49.246;9.100;2024-02-21T12:54:15;99069.13;;;13.28;54.26
14120;BME280;7138;49.246;9.100;2024-02-21T12:56:40;99073.22;;;13.25;54.43
14120;BME280;7138;49.246;9.100;2024-02-21T12:59:07;99067.22;;;13.28;54.05
14120;BME280;7138;49.246;9.100;2024-02-21T13:01:36;99057.97;;;13.40;54.20
14120;BME280;7138;49.246;9.100;2024-02-21T13:04:02;99060.53;;;13.46;54.19
14120;BME280;7138;49.246;9.100;2024-02-21T13:06:29;99047.41;;;13.53;54.78
14120;BME280;7138;49.246;9.100;2024-02-21T13:08:56;99040.59;;;13.61;53.10
14120;BME280;7138;49.246;9.100;2024-02-21T13:11:22;99029.59;;;13.61;52.56
14120;BME280;7138;49.246;9.100;2024-02-21T13:13:48;99032.00;;;13.57;52.78
14120;BME280;7138;49.246;9.100;2024-02-21T13:16:14;99020.16;;;13.52;50.82